Bollullos de la Mitacion, Spain
Current Conditions -  °F | °C
As of 8:30 AM on Wednesday 26 Nov 2014 (Local Time) from LEZL Reporting Station
Haze Haze  
Wind Chill: 57°   Ceiling: 700
Heat Index: 57°   Visibility: 3mi
Dew Point: 55°   Wind: 0mph
Humidity: 94%   Direction: NA
Pressure: 29.94"   Gusts: NA
Location:  37.34°N, 6.14°W
Report Text: LEZL 260730Z 00000KT 5000 BR BKN007 14/13 Q1014 NOSIG
Loading
Personal Weather Stations






























Interactive Weather Map New forecast layout! Learn more

10-Day Weather Forecast

Advertisements
Track Severe Weather on mobile